sensor_id;sensor_type;location;lat;lon;timestamp;P1;durP1;ratioP1;P2;durP2;ratioP2
72569;SDS011;60594;50.204;8.844;2022-09-09T00:01:51;2.70;;;1.10;;
72569;SDS011;60594;50.204;8.844;2022-09-09T00:04:31;2.70;;;1.20;;
72569;SDS011;60594;50.204;8.844;2022-09-09T00:07:00;3.22;;;1.13;;
72569;SDS011;60594;50.204;8.844;2022-09-09T00:09:44;3.45;;;1.60;;
72569;SDS011;60594;50.204;8.844;2022-09-09T00:12:38;4.40;;;1.60;;
72569;SDS011;60594;50.204;8.844;2022-09-09T00:15:20;4.90;;;1.50;;
72569;SDS011;60594;50.204;8.844;2022-09-09T00:17:57;3.03;;;1.33;;
72569;SDS011;60594;50.204;8.844;2022-09-09T00:20:36;4.35;;;1.13;;
72569;SDS011;60594;50.204;8.844;2022-09-09T00:23:22;2.20;;;1.02;;
72569;SDS011;60594;50.204;8.844;2022-09-09T00:28:55;2.60;;;1.10;;
72569;SDS011;60594;50.204;8.844;2022-09-09T00:31:30;2.75;;;1.38;;
72569;SDS011;60594;50.204;8.844;2022-09-09T00:34:08;2.05;;;1.15;;
72569;SDS011;60594;50.204;8.844;2022-09-09T00:36:41;3.00;;;1.15;;
72569;SDS011;60594;50.204;8.844;2022-09-09T00:39:09;2.83;;;1.75;;
72569;SDS011;60594;50.204;8.844;2022-09-09T00:44:37;2.72;;;1.00;;
72569;SDS011;60594;50.204;8.844;2022-09-09T00:52:36;4.25;;;1.33;;
72569;SDS011;60594;50.204;8.844;2022-09-09T00:55:16;3.25;;;1.20;;
72569;SDS011;60594;50.204;8.844;2022-09-09T00:57:51;2.83;;;1.15;;
72569;SDS011;60594;50.204;8.844;2022-09-09T01:03:02;2.58;;;1.17;;
72569;SDS011;60594;50.204;8.844;2022-09-09T01:05:41;2.92;;;1.30;;
72569;SDS011;60594;50.204;8.844;2022-09-09T01:13:56;2.92;;;1.27;;
72569;SDS011;60594;50.204;8.844;2022-09-09T01:16:33;3.28;;;1.00;;
72569;SDS011;60594;50.204;8.844;2022-09-09T01:19:00;5.00;;;1.23;;
72569;SDS011;60594;50.204;8.844;2022-09-09T01:21:42;2.58;;;1.33;;
72569;SDS011;60594;50.204;8.844;2022-09-09T01:27:17;2.63;;;1.15;;
72569;SDS011;60594;50.204;8.844;2022-09-09T01:29:45;6.93;;;1.25;;
72569;SDS011;60594;50.204;8.844;2022-09-09T01:35:34;2.20;;;1.10;;
72569;SDS011;60594;50.204;8.844;2022-09-09T01:38:12;2.85;;;1.27;;
72569;SDS011;60594;50.204;8.844;2022-09-09T01:43:06;2.35;;;1.15;;
72569;SDS011;60594;50.204;8.844;2022-09-09T01:45:34;2.58;;;1.23;;
72569;SDS011;60594;50.204;8.844;2022-09-09T01:48:01;2.45;;;1.15;;
72569;SDS011;60594;50.204;8.844;2022-09-09T01:50:44;2.42;;;1.10;;
72569;SDS011;60594;50.204;8.844;2022-09-09T01:53:10;3.38;;;1.58;;
72569;SDS011;60594;50.204;8.844;2022-09-09T01:55:38;4.13;;;1.08;;
72569;SDS011;60594;50.204;8.844;2022-09-09T02:03:44;2.70;;;1.20;;
72569;SDS011;60594;50.204;8.844;2022-09-09T02:06:27;3.67;;;1.50;;
72569;SDS011;60594;50.204;8.844;2022-09-09T02:09:05;4.45;;;1.33;;
72569;SDS011;60594;50.204;8.844;2022-09-09T02:11:33;3.30;;;1.08;;
72569;SDS011;60594;50.204;8.844;2022-09-09T02:14:12;4.88;;;1.17;;
72569;SDS011;60594;50.204;8.844;2022-09-09T02:16:55;3.70;;;1.00;;
72569;SDS011;60594;50.204;8.844;2022-09-09T02:19:42;2.70;;;1.20;;
72569;SDS011;60594;50.204;8.844;2022-09-09T02:22:27;2.70;;;1.38;;
72569;SDS011;60594;50.204;8.844;2022-09-09T02:24:58;2.00;;;1.00;;
72569;SDS011;60594;50.204;8.844;2022-09-09T02:27:28;2.53;;;1.23;;
72569;SDS011;60594;50.204;8.844;2022-09-09T02:29:56;3.42;;;1.10;;
72569;SDS011;60594;50.204;8.844;2022-09-09T02:32:37;4.18;;;1.33;;
72569;SDS011;60594;50.204;8.844;2022-09-09T02:35:11;3.38;;;1.30;;
72569;SDS011;60594;50.204;8.844;2022-09-09T02:37:42;3.15;;;1.30;;
72569;SDS011;60594;50.204;8.844;2022-09-09T02:40:12;2.30;;;1.15;;
72569;SDS011;60594;50.204;8.844;2022-09-09T02:42:48;3.28;;;1.20;;
72569;SDS011;60594;50.204;8.844;2022-09-09T02:45:19;3.28;;;1.40;;
72569;SDS011;60594;50.204;8.844;2022-09-09T02:48:08;3.05;;;1.38;;
72569;SDS011;60594;50.204;8.844;2022-09-09T02:50:50;2.75;;;1.05;;
72569;SDS011;60594;50.204;8.844;2022-09-09T02:53:30;3.75;;;1.20;;
72569;SDS011;60594;50.204;8.844;2022-09-09T02:56:05;2.72;;;1.40;;
72569;SDS011;60594;50.204;8.844;2022-09-09T02:58:42;3.25;;;1.15;;
72569;SDS011;60594;50.204;8.844;2022-09-09T03:01:08;3.45;;;1.55;;
72569;SDS011;60594;50.204;8.844;2022-09-09T03:03:35;3.15;;;1.20;;
72569;SDS011;60594;50.204;8.844;2022-09-09T03:06:07;5.32;;;1.75;;
72569;SDS011;60594;50.204;8.844;2022-09-09T03:08:33;3.85;;;1.52;;
72569;SDS011;60594;50.204;8.844;2022-09-09T03:11:00;4.45;;;1.35;;
72569;SDS011;60594;50.204;8.844;2022-09-09T03:13:28;3.45;;;1.40;;
72569;SDS011;60594;50.204;8.844;2022-09-09T03:15:55;3.67;;;1.45;;
72569;SDS011;60594;50.204;8.844;2022-09-09T03:18:21;2.83;;;1.08;;
72569;SDS011;60594;50.204;8.844;2022-09-09T03:20:51;4.07;;;1.48;;
72569;SDS011;60594;50.204;8.844;2022-09-09T03:23:20;3.08;;;1.60;;
72569;SDS011;60594;50.204;8.844;2022-09-09T03:25:51;3.25;;;1.80;;
72569;SDS011;60594;50.204;8.844;2022-09-09T03:28:22;3.10;;;1.70;;
72569;SDS011;60594;50.204;8.844;2022-09-09T03:30:50;3.03;;;1.42;;
72569;SDS011;60594;50.204;8.844;2022-09-09T03:33:17;3.60;;;1.50;;
72569;SDS011;60594;50.204;8.844;2022-09-09T03:35:46;4.22;;;1.65;;
72569;SDS011;60594;50.204;8.844;2022-09-09T03:38:15;3.22;;;1.40;;
72569;SDS011;60594;50.204;8.844;2022-09-09T03:40:52;4.45;;;1.63;;
72569;SDS011;60594;50.204;8.844;2022-09-09T03:43:26;2.88;;;1.45;;
72569;SDS011;60594;50.204;8.844;2022-09-09T03:45:54;4.05;;;1.98;;
72569;SDS011;60594;50.204;8.844;2022-09-09T03:48:26;3.47;;;1.58;;
72569;SDS011;60594;50.204;8.844;2022-09-09T03:50:54;3.70;;;1.58;;
72569;SDS011;60594;50.204;8.844;2022-09-09T03:53:26;4.60;;;1.90;;
72569;SDS011;60594;50.204;8.844;2022-09-09T03:55:54;3.63;;;1.40;;
72569;SDS011;60594;50.204;8.844;2022-09-09T03:58:25;3.30;;;1.63;;
72569;SDS011;60594;50.204;8.844;2022-09-09T04:01:14;3.30;;;1.58;;
72569;SDS011;60594;50.204;8.844;2022-09-09T04:03:43;4.75;;;1.65;;
72569;SDS011;60594;50.204;8.844;2022-09-09T04:06:13;3.30;;;1.45;;
72569;SDS011;60594;50.204;8.844;2022-09-09T04:08:43;3.58;;;1.70;;
72569;SDS011;60594;50.204;8.844;2022-09-09T04:11:13;3.33;;;1.38;;
72569;SDS011;60594;50.204;8.844;2022-09-09T04:13:41;3.50;;;1.40;;
72569;SDS011;60594;50.204;8.844;2022-09-09T04:16:10;3.20;;;1.73;;
72569;SDS011;60594;50.204;8.844;2022-09-09T04:18:39;3.95;;;2.03;;
72569;SDS011;60594;50.204;8.844;2022-09-09T04:21:07;4.32;;;1.70;;
72569;SDS011;60594;50.204;8.844;2022-09-09T04:26:02;2.97;;;1.75;;
72569;SDS011;60594;50.204;8.844;2022-09-09T04:28:30;4.50;;;1.70;;
72569;SDS011;60594;50.204;8.844;2022-09-09T04:31:06;4.00;;;1.98;;
72569;SDS011;60594;50.204;8.844;2022-09-09T04:33:45;3.80;;;1.50;;
72569;SDS011;60594;50.204;8.844;2022-09-09T04:36:12;3.92;;;1.55;;
72569;SDS011;60594;50.204;8.844;2022-09-09T04:38:39;4.03;;;1.73;;
72569;SDS011;60594;50.204;8.844;2022-09-09T04:41:06;4.72;;;1.88;;
72569;SDS011;60594;50.204;8.844;2022-09-09T04:43:34;4.15;;;1.95;;
72569;SDS011;60594;50.204;8.844;2022-09-09T04:46:02;3.20;;;1.48;;
72569;SDS011;60594;50.204;8.844;2022-09-09T04:48:29;3.03;;;1.63;;
72569;SDS011;60594;50.204;8.844;2022-09-09T04:50:58;5.47;;;1.60;;
72569;SDS011;60594;50.204;8.844;2022-09-09T04:53:27;6.40;;;1.45;;
72569;SDS011;60594;50.204;8.844;2022-09-09T04:58:34;3.92;;;1.80;;
72569;SDS011;60594;50.204;8.844;2022-09-09T05:01:09;3.10;;;1.38;;
72569;SDS011;60594;50.204;8.844;2022-09-09T05:03:45;3.60;;;1.65;;
72569;SDS011;60594;50.204;8.844;2022-09-09T05:06:16;4.45;;;1.60;;
72569;SDS011;60594;50.204;8.844;2022-09-09T05:08:46;4.45;;;1.73;;
72569;SDS011;60594;50.204;8.844;2022-09-09T05:11:17;4.03;;;1.40;;
72569;SDS011;60594;50.204;8.844;2022-09-09T05:13:46;3.80;;;1.52;;
72569;SDS011;60594;50.204;8.844;2022-09-09T05:16:13;5.68;;;1.63;;
72569;SDS011;60594;50.204;8.844;2022-09-09T05:21:09;3.63;;;1.45;;
72569;SDS011;60594;50.204;8.844;2022-09-09T05:23:36;4.45;;;1.40;;
72569;SDS011;60594;50.204;8.844;2022-09-09T05:26:03;4.20;;;1.48;;
72569;SDS011;60594;50.204;8.844;2022-09-09T05:28:30;4.15;;;1.50;;
72569;SDS011;60594;50.204;8.844;2022-09-09T05:31:00;4.00;;;1.88;;
72569;SDS011;60594;50.204;8.844;2022-09-09T05:33:35;4.28;;;1.73;;
72569;SDS011;60594;50.204;8.844;2022-09-09T05:36:03;4.40;;;1.85;;
72569;SDS011;60594;50.204;8.844;2022-09-09T05:38:31;4.63;;;1.73;;
72569;SDS011;60594;50.204;8.844;2022-09-09T05:41:01;2.92;;;1.50;;
72569;SDS011;60594;50.204;8.844;2022-09-09T05:43:29;3.00;;;1.23;;
72569;SDS011;60594;50.204;8.844;2022-09-09T05:46:05;3.35;;;1.48;;
72569;SDS011;60594;50.204;8.844;2022-09-09T05:48:35;3.53;;;1.30;;
72569;SDS011;60594;50.204;8.844;2022-09-09T05:51:03;5.45;;;1.63;;
72569;SDS011;60594;50.204;8.844;2022-09-09T05:53:32;4.40;;;1.60;;
72569;SDS011;60594;50.204;8.844;2022-09-09T05:58:33;5.60;;;1.67;;
72569;SDS011;60594;50.204;8.844;2022-09-09T06:01:04;3.38;;;1.55;;
72569;SDS011;60594;50.204;8.844;2022-09-09T06:03:32;3.88;;;1.55;;
72569;SDS011;60594;50.204;8.844;2022-09-09T06:06:03;2.90;;;1.30;;
72569;SDS011;60594;50.204;8.844;2022-09-09T06:08:32;3.05;;;1.50;;
72569;SDS011;60594;50.204;8.844;2022-09-09T06:11:08;4.68;;;1.65;;
72569;SDS011;60594;50.204;8.844;2022-09-09T06:13:37;4.32;;;1.42;;
72569;SDS011;60594;50.204;8.844;2022-09-09T06:16:05;8.30;;;1.73;;
72569;SDS011;60594;50.204;8.844;2022-09-09T06:18:38;4.68;;;1.50;;
72569;SDS011;60594;50.204;8.844;2022-09-09T06:21:06;3.33;;;1.25;;
72569;SDS011;60594;50.204;8.844;2022-09-09T06:23:35;3.97;;;1.48;;
72569;SDS011;60594;50.204;8.844;2022-09-09T06:28:29;4.10;;;1.40;;
72569;SDS011;60594;50.204;8.844;2022-09-09T06:30:59;4.05;;;1.38;;
72569;SDS011;60594;50.204;8.844;2022-09-09T06:33:34;4.35;;;1.25;;
72569;SDS011;60594;50.204;8.844;2022-09-09T06:36:02;2.85;;;1.20;;
72569;SDS011;60594;50.204;8.844;2022-09-09T06:38:30;4.75;;;1.35;;
72569;SDS011;60594;50.204;8.844;2022-09-09T06:40:58;2.83;;;1.48;;
72569;SDS011;60594;50.204;8.844;2022-09-09T06:43:26;2.03;;;1.10;;
72569;SDS011;60594;50.204;8.844;2022-09-09T06:45:58;2.40;;;1.10;;
72569;SDS011;60594;50.204;8.844;2022-09-09T06:48:27;2.70;;;1.08;;
72569;SDS011;60594;50.204;8.844;2022-09-09T06:51:04;2.42;;;1.33;;
72569;SDS011;60594;50.204;8.844;2022-09-09T06:53:39;2.55;;;1.23;;
72569;SDS011;60594;50.204;8.844;2022-09-09T06:59:01;3.15;;;1.35;;
72569;SDS011;60594;50.204;8.844;2022-09-09T07:01:33;5.25;;;1.50;;
72569;SDS011;60594;50.204;8.844;2022-09-09T07:04:04;3.92;;;1.13;;
72569;SDS011;60594;50.204;8.844;2022-09-09T07:06:35;3.50;;;1.10;;
72569;SDS011;60594;50.204;8.844;2022-09-09T07:09:05;3.10;;;1.20;;
72569;SDS011;60594;50.204;8.844;2022-09-09T07:11:37;4.38;;;1.23;;
72569;SDS011;60594;50.204;8.844;2022-09-09T07:14:08;5.00;;;1.48;;
72569;SDS011;60594;50.204;8.844;2022-09-09T07:16:35;4.07;;;1.55;;
72569;SDS011;60594;50.204;8.844;2022-09-09T07:19:03;3.13;;;1.27;;
72569;SDS011;60594;50.204;8.844;2022-09-09T07:21:31;4.25;;;1.80;;
72569;SDS011;60594;50.204;8.844;2022-09-09T07:23:59;2.80;;;1.30;;
72569;SDS011;60594;50.204;8.844;2022-09-09T07:26:27;3.10;;;1.33;;
72569;SDS011;60594;50.204;8.844;2022-09-09T07:28:56;3.75;;;1.45;;
72569;SDS011;60594;50.204;8.844;2022-09-09T07:33:49;4.22;;;1.42;;
72569;SDS011;60594;50.204;8.844;2022-09-09T07:36:20;3.70;;;1.30;;
72569;SDS011;60594;50.204;8.844;2022-09-09T07:39:13;2.90;;;1.50;;
72569;SDS011;60594;50.204;8.844;2022-09-09T07:41:44;3.78;;;1.52;;
72569;SDS011;60594;50.204;8.844;2022-09-09T07:44:17;2.75;;;1.48;;
72569;SDS011;60594;50.204;8.844;2022-09-09T07:46:48;6.10;;;1.52;;
72569;SDS011;60594;50.204;8.844;2022-09-09T07:49:20;3.65;;;1.75;;
72569;SDS011;60594;50.204;8.844;2022-09-09T07:51:46;4.03;;;1.40;;
72569;SDS011;60594;50.204;8.844;2022-09-09T07:54:16;3.47;;;1.83;;
72569;SDS011;60594;50.204;8.844;2022-09-09T07:56:49;3.63;;;1.23;;
72569;SDS011;60594;50.204;8.844;2022-09-09T07:59:19;4.40;;;1.77;;
72569;SDS011;60594;50.204;8.844;2022-09-09T08:01:49;4.35;;;1.58;;
72569;SDS011;60594;50.204;8.844;2022-09-09T08:04:21;2.60;;;1.35;;
72569;SDS011;60594;50.204;8.844;2022-09-09T08:06:51;4.15;;;1.55;;
72569;SDS011;60594;50.204;8.844;2022-09-09T08:09:21;3.70;;;1.55;;
72569;SDS011;60594;50.204;8.844;2022-09-09T08:11:51;3.53;;;1.30;;
72569;SDS011;60594;50.204;8.844;2022-09-09T08:14:17;6.47;;;1.85;;
72569;SDS011;60594;50.204;8.844;2022-09-09T08:16:54;4.45;;;1.42;;
72569;SDS011;60594;50.204;8.844;2022-09-09T08:19:22;5.50;;;1.70;;
72569;SDS011;60594;50.204;8.844;2022-09-09T08:21:49;2.65;;;1.40;;
72569;SDS011;60594;50.204;8.844;2022-09-09T08:24:16;3.30;;;1.40;;
72569;SDS011;60594;50.204;8.844;2022-09-09T08:26:47;3.25;;;1.50;;
72569;SDS011;60594;50.204;8.844;2022-09-09T08:29:17;5.68;;;1.80;;
72569;SDS011;60594;50.204;8.844;2022-09-09T08:31:46;5.07;;;1.60;;
72569;SDS011;60594;50.204;8.844;2022-09-09T08:34:18;3.28;;;1.48;;
72569;SDS011;60594;50.204;8.844;2022-09-09T08:36:47;3.15;;;1.55;;
72569;SDS011;60594;50.204;8.844;2022-09-09T08:39:16;3.53;;;1.75;;
72569;SDS011;60594;50.204;8.844;2022-09-09T08:47:11;3.67;;;1.45;;
72569;SDS011;60594;50.204;8.844;2022-09-09T08:55:37;3.63;;;1.60;;
72569;SDS011;60594;50.204;8.844;2022-09-09T08:58:11;6.15;;;2.00;;
72569;SDS011;60594;50.204;8.844;2022-09-09T09:01:05;5.38;;;1.70;;
72569;SDS011;60594;50.204;8.844;2022-09-09T09:04:18;3.42;;;1.73;;
72569;SDS011;60594;50.204;8.844;2022-09-09T09:12:25;4.03;;;1.90;;
72569;SDS011;60594;50.204;8.844;2022-09-09T09:14:58;3.42;;;1.77;;
72569;SDS011;60594;50.204;8.844;2022-09-09T09:17:26;4.90;;;1.67;;
72569;SDS011;60594;50.204;8.844;2022-09-09T09:19:57;3.28;;;1.70;;
72569;SDS011;60594;50.204;8.844;2022-09-09T09:25:25;3.78;;;1.30;;
72569;SDS011;60594;50.204;8.844;2022-09-09T09:28:02;6.00;;;1.98;;
72569;SDS011;60594;50.204;8.844;2022-09-09T09:30:58;5.53;;;1.60;;
72569;SDS011;60594;50.204;8.844;2022-09-09T09:36:33;7.20;;;1.42;;
72569;SDS011;60594;50.204;8.844;2022-09-09T09:39:27;4.10;;;1.25;;
72569;SDS011;60594;50.204;8.844;2022-09-09T09:41:59;7.47;;;1.38;;
72569;SDS011;60594;50.204;8.844;2022-09-09T09:44:37;5.78;;;1.60;;
72569;SDS011;60594;50.204;8.844;2022-09-09T09:47:11;4.90;;;1.45;;
72569;SDS011;60594;50.204;8.844;2022-09-09T09:49:39;3.72;;;1.67;;
72569;SDS011;60594;50.204;8.844;2022-09-09T09:52:20;2.60;;;1.05;;
72569;SDS011;60594;50.204;8.844;2022-09-09T09:54:50;3.90;;;1.35;;
72569;SDS011;60594;50.204;8.844;2022-09-09T09:57:21;3.35;;;1.00;;
72569;SDS011;60594;50.204;8.844;2022-09-09T10:02:55;4.28;;;1.42;;
72569;SDS011;60594;50.204;8.844;2022-09-09T10:05:25;2.65;;;1.08;;
72569;SDS011;60594;50.204;8.844;2022-09-09T10:17:14;2.33;;;1.30;;
72569;SDS011;60594;50.204;8.844;2022-09-09T10:19:36;4.13;;;1.33;;
72569;SDS011;60594;50.204;8.844;2022-09-09T10:28:19;5.88;;;1.02;;
72569;SDS011;60594;50.204;8.844;2022-09-09T10:33:37;1.88;;;0.75;;
72569;SDS011;60594;50.204;8.844;2022-09-09T10:36:23;3.55;;;0.93;;
72569;SDS011;60594;50.204;8.844;2022-09-09T10:38:54;2.88;;;0.90;;
72569;SDS011;60594;50.204;8.844;2022-09-09T10:47:20;3.78;;;1.23;;
72569;SDS011;60594;50.204;8.844;2022-09-09T10:55:39;4.15;;;0.93;;
72569;SDS011;60594;50.204;8.844;2022-09-09T10:58:14;3.03;;;1.05;;
72569;SDS011;60594;50.204;8.844;2022-09-09T11:00:47;4.60;;;1.10;;
72569;SDS011;60594;50.204;8.844;2022-09-09T11:03:23;3.25;;;1.02;;
72569;SDS011;60594;50.204;8.844;2022-09-09T11:05:53;3.30;;;1.00;;
72569;SDS011;60594;50.204;8.844;2022-09-09T11:08:26;2.35;;;0.95;;
72569;SDS011;60594;50.204;8.844;2022-09-09T11:16:24;2.33;;;0.82;;
72569;SDS011;60594;50.204;8.844;2022-09-09T11:19:39;2.55;;;0.90;;
72569;SDS011;60594;50.204;8.844;2022-09-09T11:21:55;4.20;;;1.13;;
72569;SDS011;60594;50.204;8.844;2022-09-09T11:24:38;3.03;;;1.23;;
72569;SDS011;60594;50.204;8.844;2022-09-09T11:27:12;3.85;;;1.67;;
72569;SDS011;60594;50.204;8.844;2022-09-09T11:29:45;3.97;;;1.45;;
72569;SDS011;60594;50.204;8.844;2022-09-09T11:35:26;8.70;;;2.20;;
72569;SDS011;60594;50.204;8.844;2022-09-09T11:40:54;2.90;;;1.33;;
72569;SDS011;60594;50.204;8.844;2022-09-09T11:43:26;4.68;;;1.40;;
72569;SDS011;60594;50.204;8.844;2022-09-09T11:46:00;3.35;;;1.50;;
72569;SDS011;60594;50.204;8.844;2022-09-09T11:48:32;3.92;;;1.30;;
72569;SDS011;60594;50.204;8.844;2022-09-09T11:51:02;5.57;;;1.60;;
72569;SDS011;60594;50.204;8.844;2022-09-09T11:53:57;3.47;;;1.73;;
72569;SDS011;60594;50.204;8.844;2022-09-09T11:56:43;4.80;;;1.60;;
72569;SDS011;60594;50.204;8.844;2022-09-09T11:59:19;3.55;;;1.45;;
72569;SDS011;60594;50.204;8.844;2022-09-09T12:04:30;4.00;;;1.52;;
72569;SDS011;60594;50.204;8.844;2022-09-09T12:09:48;4.90;;;1.55;;
72569;SDS011;60594;50.204;8.844;2022-09-09T12:12:21;3.60;;;1.65;;
72569;SDS011;60594;50.204;8.844;2022-09-09T12:17:42;4.20;;;1.40;;
72569;SDS011;60594;50.204;8.844;2022-09-09T12:20:17;4.68;;;1.20;;
72569;SDS011;60594;50.204;8.844;2022-09-09T12:31:14;2.55;;;1.20;;
72569;SDS011;60594;50.204;8.844;2022-09-09T12:33:45;3.33;;;1.25;;
72569;SDS011;60594;50.204;8.844;2022-09-09T12:36:19;3.40;;;1.30;;
72569;SDS011;60594;50.204;8.844;2022-09-09T12:38:49;3.42;;;1.48;;
72569;SDS011;60594;50.204;8.844;2022-09-09T12:41:24;2.63;;;1.30;;
72569;SDS011;60594;50.204;8.844;2022-09-09T12:44:04;4.82;;;1.42;;
72569;SDS011;60594;50.204;8.844;2022-09-09T12:46:36;3.17;;;1.50;;
72569;SDS011;60594;50.204;8.844;2022-09-09T12:51:55;3.47;;;1.75;;
72569;SDS011;60594;50.204;8.844;2022-09-09T12:54:23;4.05;;;1.33;;
72569;SDS011;60594;50.204;8.844;2022-09-09T12:56:50;3.25;;;1.23;;
72569;SDS011;60594;50.204;8.844;2022-09-09T12:59:22;4.32;;;1.30;;
72569;SDS011;60594;50.204;8.844;2022-09-09T13:02:11;3.70;;;1.13;;
72569;SDS011;60594;50.204;8.844;2022-09-09T13:04:50;3.90;;;1.10;;
72569;SDS011;60594;50.204;8.844;2022-09-09T13:07:18;2.85;;;0.63;;
72569;SDS011;60594;50.204;8.844;2022-09-09T13:09:46;1.90;;;0.90;;
72569;SDS011;60594;50.204;8.844;2022-09-09T13:12:19;2.92;;;0.80;;
72569;SDS011;60594;50.204;8.844;2022-09-09T13:14:52;1.80;;;0.65;;
72569;SDS011;60594;50.204;8.844;2022-09-09T13:17:35;3.80;;;0.70;;
72569;SDS011;60594;50.204;8.844;2022-09-09T13:20:02;1.70;;;0.70;;
72569;SDS011;60594;50.204;8.844;2022-09-09T13:22:34;2.13;;;0.95;;
72569;SDS011;60594;50.204;8.844;2022-09-09T13:25:06;2.25;;;1.08;;
72569;SDS011;60594;50.204;8.844;2022-09-09T13:27:41;2.10;;;0.88;;
72569;SDS011;60594;50.204;8.844;2022-09-09T13:30:31;1.73;;;0.85;;
72569;SDS011;60594;50.204;8.844;2022-09-09T13:37:57;2.15;;;1.00;;
72569;SDS011;60594;50.204;8.844;2022-09-09T13:40:29;1.98;;;0.77;;
72569;SDS011;60594;50.204;8.844;2022-09-09T13:42:56;2.17;;;0.95;;
72569;SDS011;60594;50.204;8.844;2022-09-09T13:45:24;1.75;;;0.75;;
72569;SDS011;60594;50.204;8.844;2022-09-09T13:47:55;2.97;;;1.00;;
72569;SDS011;60594;50.204;8.844;2022-09-09T13:50:23;3.00;;;1.20;;
72569;SDS011;60594;50.204;8.844;2022-09-09T13:52:52;3.10;;;0.98;;
72569;SDS011;60594;50.204;8.844;2022-09-09T13:55:21;5.20;;;1.20;;
72569;SDS011;60594;50.204;8.844;2022-09-09T14:00:18;2.00;;;1.00;;
72569;SDS011;60594;50.204;8.844;2022-09-09T14:02:45;2.22;;;0.93;;
72569;SDS011;60594;50.204;8.844;2022-09-09T14:05:12;2.95;;;1.00;;
72569;SDS011;60594;50.204;8.844;2022-09-09T14:07:38;1.98;;;0.77;;
72569;SDS011;60594;50.204;8.844;2022-09-09T14:10:06;2.83;;;1.00;;
72569;SDS011;60594;50.204;8.844;2022-09-09T14:12:34;1.67;;;0.80;;
72569;SDS011;60594;50.204;8.844;2022-09-09T14:15:03;1.40;;;0.60;;
72569;SDS011;60594;50.204;8.844;2022-09-09T14:17:31;2.10;;;0.57;;
72569;SDS011;60594;50.204;8.844;2022-09-09T14:19:58;2.35;;;0.60;;
72569;SDS011;60594;50.204;8.844;2022-09-09T14:22:25;1.38;;;0.60;;
72569;SDS011;60594;50.204;8.844;2022-09-09T14:24:53;1.92;;;0.85;;
72569;SDS011;60594;50.204;8.844;2022-09-09T14:27:22;1.80;;;0.82;;
72569;SDS011;60594;50.204;8.844;2022-09-09T14:29:48;1.27;;;0.63;;
72569;SDS011;60594;50.204;8.844;2022-09-09T14:32:16;1.45;;;0.80;;
72569;SDS011;60594;50.204;8.844;2022-09-09T14:34:42;2.13;;;0.60;;
72569;SDS011;60594;50.204;8.844;2022-09-09T14:37:09;1.30;;;0.60;;
72569;SDS011;60594;50.204;8.844;2022-09-09T14:39:36;1.15;;;0.60;;
72569;SDS011;60594;50.204;8.844;2022-09-09T14:42:16;1.13;;;0.52;;
72569;SDS011;60594;50.204;8.844;2022-09-09T14:44:43;2.83;;;0.90;;
72569;SDS011;60594;50.204;8.844;2022-09-09T14:47:09;1.65;;;0.60;;
72569;SDS011;60594;50.204;8.844;2022-09-09T14:49:35;1.55;;;0.65;;
72569;SDS011;60594;50.204;8.844;2022-09-09T14:52:03;1.52;;;0.70;;
72569;SDS011;60594;50.204;8.844;2022-09-09T14:54:33;2.55;;;0.82;;
72569;SDS011;60594;50.204;8.844;2022-09-09T14:56:59;1.02;;;0.60;;
72569;SDS011;60594;50.204;8.844;2022-09-09T14:59:25;2.08;;;0.73;;
72569;SDS011;60594;50.204;8.844;2022-09-09T15:01:53;1.75;;;0.82;;
72569;SDS011;60594;50.204;8.844;2022-09-09T15:04:19;1.33;;;0.70;;
72569;SDS011;60594;50.204;8.844;2022-09-09T15:06:46;2.80;;;0.80;;
72569;SDS011;60594;50.204;8.844;2022-09-09T15:09:14;1.40;;;0.70;;
72569;SDS011;60594;50.204;8.844;2022-09-09T15:11:41;1.95;;;1.30;;
72569;SDS011;60594;50.204;8.844;2022-09-09T15:14:08;1.20;;;0.63;;
72569;SDS011;60594;50.204;8.844;2022-09-09T15:16:34;1.08;;;0.50;;
72569;SDS011;60594;50.204;8.844;2022-09-09T15:19:02;1.75;;;0.63;;
72569;SDS011;60594;50.204;8.844;2022-09-09T15:21:29;3.10;;;0.75;;
72569;SDS011;60594;50.204;8.844;2022-09-09T15:23:57;1.10;;;0.70;;
72569;SDS011;60594;50.204;8.844;2022-09-09T15:26:24;1.20;;;0.60;;
72569;SDS011;60594;50.204;8.844;2022-09-09T15:28:52;1.77;;;0.70;;
72569;SDS011;60594;50.204;8.844;2022-09-09T15:31:28;1.02;;;0.55;;
72569;SDS011;60594;50.204;8.844;2022-09-09T15:33:57;1.65;;;0.60;;
72569;SDS011;60594;50.204;8.844;2022-09-09T15:38:59;2.00;;;0.60;;
72569;SDS011;60594;50.204;8.844;2022-09-09T15:41:26;3.17;;;0.77;;
72569;SDS011;60594;50.204;8.844;2022-09-09T15:43:54;2.42;;;0.73;;
72569;SDS011;60594;50.204;8.844;2022-09-09T15:48:50;1.48;;;0.52;;
72569;SDS011;60594;50.204;8.844;2022-09-09T15:51:16;2.60;;;0.68;;
72569;SDS011;60594;50.204;8.844;2022-09-09T15:53:44;1.00;;;0.52;;
72569;SDS011;60594;50.204;8.844;2022-09-09T15:56:10;1.73;;;0.60;;
72569;SDS011;60594;50.204;8.844;2022-09-09T15:58:37;1.15;;;0.60;;
72569;SDS011;60594;50.204;8.844;2022-09-09T16:01:03;1.30;;;0.73;;
72569;SDS011;60594;50.204;8.844;2022-09-09T16:03:36;2.42;;;0.70;;
72569;SDS011;60594;50.204;8.844;2022-09-09T16:06:04;2.95;;;0.70;;
72569;SDS011;60594;50.204;8.844;2022-09-09T16:08:32;1.80;;;0.70;;
72569;SDS011;60594;50.204;8.844;2022-09-09T16:11:09;2.92;;;0.70;;
72569;SDS011;60594;50.204;8.844;2022-09-09T16:13:40;2.95;;;0.80;;
72569;SDS011;60594;50.204;8.844;2022-09-09T16:16:09;1.88;;;0.70;;
72569;SDS011;60594;50.204;8.844;2022-09-09T16:18:38;2.92;;;0.98;;
72569;SDS011;60594;50.204;8.844;2022-09-09T16:21:06;1.90;;;0.75;;
72569;SDS011;60594;50.204;8.844;2022-09-09T16:23:34;2.28;;;0.80;;
72569;SDS011;60594;50.204;8.844;2022-09-09T16:26:00;1.52;;;0.77;;
72569;SDS011;60594;50.204;8.844;2022-09-09T16:28:27;0.63;;;0.52;;
72569;SDS011;60594;50.204;8.844;2022-09-09T16:30:54;1.35;;;0.60;;
72569;SDS011;60594;50.204;8.844;2022-09-09T16:33:20;2.10;;;0.90;;
72569;SDS011;60594;50.204;8.844;2022-09-09T16:35:47;1.60;;;0.73;;
72569;SDS011;60594;50.204;8.844;2022-09-09T16:38:13;1.80;;;0.88;;
72569;SDS011;60594;50.204;8.844;2022-09-09T16:40:40;1.73;;;0.90;;
72569;SDS011;60594;50.204;8.844;2022-09-09T16:43:07;2.78;;;0.75;;
72569;SDS011;60594;50.204;8.844;2022-09-09T16:45:40;3.47;;;0.85;;
72569;SDS011;60594;50.204;8.844;2022-09-09T16:48:07;2.47;;;0.75;;
72569;SDS011;60594;50.204;8.844;2022-09-09T16:50:33;1.65;;;0.88;;
72569;SDS011;60594;50.204;8.844;2022-09-09T16:53:00;1.98;;;0.90;;
72569;SDS011;60594;50.204;8.844;2022-09-09T16:55:29;3.38;;;1.00;;
72569;SDS011;60594;50.204;8.844;2022-09-09T16:57:56;2.58;;;0.93;;
72569;SDS011;60594;50.204;8.844;2022-09-09T17:00:22;2.78;;;0.85;;
72569;SDS011;60594;50.204;8.844;2022-09-09T17:02:49;2.08;;;0.80;;
72569;SDS011;60594;50.204;8.844;2022-09-09T17:05:15;1.75;;;0.73;;
72569;SDS011;60594;50.204;8.844;2022-09-09T17:07:41;2.60;;;0.75;;
72569;SDS011;60594;50.204;8.844;2022-09-09T17:10:09;3.83;;;1.13;;
72569;SDS011;60594;50.204;8.844;2022-09-09T17:12:35;2.25;;;0.82;;
72569;SDS011;60594;50.204;8.844;2022-09-09T17:15:02;2.08;;;0.80;;
72569;SDS011;60594;50.204;8.844;2022-09-09T17:17:29;2.88;;;1.02;;
72569;SDS011;60594;50.204;8.844;2022-09-09T17:19:56;2.90;;;1.05;;
72569;SDS011;60594;50.204;8.844;2022-09-09T17:22:22;2.83;;;0.90;;
72569;SDS011;60594;50.204;8.844;2022-09-09T17:24:49;2.97;;;1.20;;
72569;SDS011;60594;50.204;8.844;2022-09-09T17:27:15;3.58;;;1.10;;
72569;SDS011;60594;50.204;8.844;2022-09-09T17:29:41;3.22;;;1.00;;
72569;SDS011;60594;50.204;8.844;2022-09-09T17:32:08;2.65;;;0.82;;
72569;SDS011;60594;50.204;8.844;2022-09-09T17:34:35;3.35;;;1.20;;
72569;SDS011;60594;50.204;8.844;2022-09-09T17:37:02;2.00;;;0.70;;
72569;SDS011;60594;50.204;8.844;2022-09-09T17:39:28;2.92;;;0.90;;
72569;SDS011;60594;50.204;8.844;2022-09-09T17:41:54;3.72;;;1.15;;
72569;SDS011;60594;50.204;8.844;2022-09-09T17:44:21;3.40;;;1.20;;